createdAt,value
2019-05-11T00:02:22.162Z,98969.74
2019-05-11T00:04:55.543Z,98976.24
2019-05-11T00:07:25.565Z,98988.29
2019-05-11T00:09:57.910Z,98995.09
2019-05-11T00:12:27.379Z,98996.35
2019-05-11T00:14:57.508Z,98986.91
2019-05-11T00:17:27.404Z,98988.03
2019-05-11T00:19:58.701Z,98973.05
2019-05-11T00:22:29.676Z,98961.26
2019-05-11T00:25:00.704Z,98966.31
2019-05-11T00:30:00.074Z,98954.89
2019-05-11T00:32:30.117Z,98955.86
2019-05-11T00:35:00.124Z,98964.33
2019-05-11T00:37:30.355Z,98964.27
2019-05-11T00:40:13.410Z,98958.19
2019-05-11T00:42:32.613Z,98958.64
2019-05-11T00:45:02.667Z,98963.08
2019-05-11T00:47:32.594Z,98953.88
2019-05-11T00:50:02.873Z,98963.03
2019-05-11T00:52:32.715Z,98960.38
2019-05-11T00:55:03.166Z,98957.11
2019-05-11T00:57:35.862Z,98955.55
2019-05-11T01:00:08.476Z,98958.17
2019-05-11T01:02:38.394Z,98942.85
2019-05-11T01:05:09.258Z,98927.82
2019-05-11T01:07:39.284Z,98929.85
2019-05-11T01:10:23.132Z,98920.56
2019-05-11T01:12:41.435Z,98912.38
2019-05-11T01:15:12.165Z,98903.31
2019-05-11T01:17:42.195Z,98909.83
2019-05-11T01:20:12.529Z,98901.34
2019-05-11T01:22:44.218Z,98893.09
2019-05-11T01:25:14.519Z,98896.97
2019-05-11T01:27:44.389Z,98898.78
2019-05-11T01:30:15.320Z,98895.86
2019-05-11T01:32:45.174Z,98900.60
2019-05-11T01:35:15.262Z,98807.00
2019-05-11T01:37:45.132Z,98896.09
2019-05-11T01:40:16.240Z,98890.29
2019-05-11T01:42:46.142Z,98887.17
2019-05-11T01:45:16.207Z,98891.17
2019-05-11T01:47:46.075Z,98883.84
2019-05-11T01:50:18.796Z,98881.98
2019-05-11T01:52:49.078Z,98874.90
2019-05-11T01:55:19.913Z,98881.47
2019-05-11T01:57:51.813Z,98786.80
2019-05-11T02:00:23.555Z,98883.06
2019-05-11T02:02:53.732Z,98881.47
2019-05-11T02:05:30.162Z,98885.64
2019-05-11T02:08:02.943Z,98879.78
2019-05-11T02:10:35.409Z,98876.35
2019-05-11T02:13:06.960Z,98874.53
2019-05-11T02:15:39.396Z,98869.58
2019-05-11T02:18:10.952Z,98865.64
2019-05-11T02:20:40.847Z,98868.50
2019-05-11T02:23:10.731Z,98867.19
2019-05-11T02:25:40.624Z,98866.36
2019-05-11T02:28:10.847Z,98867.67
2019-05-11T02:30:40.698Z,98868.92
2019-05-11T02:33:11.041Z,98869.44
2019-05-11T02:35:41.317Z,98868.19
2019-05-11T02:38:12.109Z,98866.93
2019-05-11T02:40:42.072Z,98868.78
2019-05-11T02:43:12.085Z,98868.04
2019-05-11T02:45:46.243Z,98864.10
2019-05-11T02:48:16.338Z,98856.81
2019-05-11T02:50:46.495Z,98863.61
2019-05-11T02:53:17.541Z,98861.76
2019-05-11T02:55:49.498Z,98855.41
2019-05-11T02:58:19.374Z,98844.53
2019-05-11T03:00:50.362Z,98843.51
2019-05-11T03:03:20.366Z,98842.94
2019-05-11T03:05:50.363Z,98836.59
2019-05-11T03:08:20.327Z,98837.38
2019-05-11T03:10:50.237Z,98836.74
2019-05-11T03:13:23.124Z,98751.64
2019-05-11T03:15:53.935Z,98835.72
2019-05-11T03:18:26.656Z,98836.59
2019-05-11T03:20:56.621Z,98848.77
2019-05-11T03:23:26.561Z,98846.67
2019-05-11T03:25:56.474Z,98848.05
2019-05-11T03:28:26.431Z,98845.14
2019-05-11T03:30:56.421Z,98852.56
2019-05-11T03:33:26.436Z,98845.70
2019-05-11T03:35:56.544Z,98851.98
2019-05-11T03:38:26.545Z,98856.78
2019-05-11T03:40:56.638Z,98863.36
2019-05-11T03:43:27.584Z,98854.56
2019-05-11T03:45:57.575Z,98858.67
2019-05-11T03:48:27.463Z,98755.03
2019-05-11T03:50:57.348Z,98848.25
2019-05-11T03:53:27.305Z,98840.05
2019-05-11T03:55:57.292Z,98844.22
2019-05-11T03:58:30.054Z,98840.56
2019-05-11T04:01:00.060Z,98837.94
2019-05-11T04:03:30.073Z,98830.86
2019-05-11T04:05:59.995Z,98832.20
2019-05-11T04:08:30.148Z,98829.86
2019-05-11T04:11:00.110Z,98829.34
2019-05-11T04:13:34.699Z,98829.41
2019-05-11T04:16:06.647Z,98828.63
2019-05-11T04:18:36.623Z,98831.77
2019-05-11T04:21:06.619Z,98830.60
2019-05-11T04:23:35.664Z,98830.88
2019-05-11T04:26:05.729Z,98833.52
2019-05-11T04:28:35.609Z,98841.17
2019-05-11T04:31:05.684Z,98835.20
2019-05-11T04:33:36.877Z,98833.67
2019-05-11T04:36:06.851Z,98832.88
2019-05-11T04:38:37.660Z,98828.94
2019-05-11T04:41:07.948Z,98835.27
2019-05-11T04:43:39.044Z,98824.19
2019-05-11T04:46:09.654Z,98832.28
2019-05-11T04:48:39.577Z,98836.45
2019-05-11T04:51:09.526Z,98835.20
2019-05-11T04:53:39.406Z,98820.17
2019-05-11T04:56:09.310Z,98819.63
2019-05-11T04:58:39.639Z,98814.27
2019-05-11T05:01:09.981Z,98738.75
2019-05-11T05:03:41.318Z,98817.52
2019-05-11T05:06:22.157Z,98813.31
2019-05-11T05:08:43.721Z,98805.44
2019-05-11T05:11:13.589Z,98812.27
2019-05-11T05:13:43.895Z,98820.41
2019-05-11T05:16:17.087Z,98825.71
2019-05-11T05:18:47.601Z,98823.68
2019-05-11T05:21:17.729Z,98731.67
2019-05-11T05:23:47.768Z,98817.03
2019-05-11T05:26:17.749Z,98816.57
2019-05-11T05:28:48.271Z,98821.16
2019-05-11T05:31:19.675Z,98739.21
2019-05-11T05:33:50.068Z,98818.28
2019-05-11T05:36:20.379Z,98816.97
2019-05-11T05:38:50.428Z,98818.08
2019-05-11T05:43:49.302Z,98822.89
2019-05-11T05:46:19.469Z,98823.47
2019-05-11T05:48:49.628Z,98822.67
2019-05-11T05:51:19.740Z,98813.73
2019-05-11T05:53:49.749Z,98799.16
2019-05-11T05:56:19.716Z,98798.92
2019-05-11T05:58:49.739Z,98797.60
2019-05-11T06:01:22.613Z,98797.84
2019-05-11T06:03:54.724Z,98794.19
2019-05-11T06:06:24.684Z,98790.08
2019-05-11T06:08:54.616Z,98792.94
2019-05-11T06:11:28.799Z,98785.27
2019-05-11T06:13:59.453Z,98778.23
2019-05-11T06:16:29.402Z,98780.92
2019-05-11T06:18:57.239Z,98785.66
2019-05-11T06:21:27.265Z,98782.77
2019-05-11T06:23:57.157Z,98779.95
2019-05-11T06:26:27.202Z,98783.45
2019-05-11T06:28:57.317Z,98777.41
2019-05-11T06:31:27.330Z,98774.86
2019-05-11T06:33:57.279Z,98774.59
2019-05-11T06:36:27.189Z,98768.58
2019-05-11T06:38:57.094Z,98768.08
2019-05-11T06:41:30.434Z,98775.73
2019-05-11T06:44:02.154Z,98769.67
2019-05-11T06:46:34.966Z,98776.17
2019-05-11T06:49:04.380Z,98770.37
2019-05-11T06:51:40.404Z,98767.83
2019-05-11T06:54:08.733Z,98769.44
2019-05-11T06:56:39.521Z,98771.70
2019-05-11T06:59:09.527Z,98771.97
2019-05-11T07:01:39.466Z,98773.05
2019-05-11T07:04:09.589Z,98768.31
2019-05-11T07:06:37.637Z,98764.13
2019-05-11T07:09:08.767Z,98765.23
2019-05-11T07:11:39.016Z,98667.84
2019-05-11T07:14:19.995Z,98755.81
2019-05-11T07:16:45.245Z,98756.61
2019-05-11T07:19:18.871Z,98754.34
2019-05-11T07:21:49.284Z,98675.91
2019-05-11T07:24:19.844Z,98757.22
2019-05-11T07:26:50.416Z,98760.42
2019-05-11T07:29:23.297Z,98757.08
2019-05-11T07:31:53.721Z,98766.64
2019-05-11T07:34:24.351Z,98766.34
2019-05-11T07:36:57.642Z,98758.45
2019-05-11T07:39:28.054Z,98760.05
2019-05-11T07:41:58.569Z,98752.38
2019-05-11T07:44:37.848Z,98744.72
2019-05-11T07:47:00.357Z,98746.13
2019-05-11T07:49:30.358Z,98747.95
2019-05-11T07:52:01.228Z,98728.08
2019-05-11T07:54:31.488Z,98742.84
2019-05-11T07:57:03.099Z,98739.12
2019-05-11T07:59:34.248Z,98736.77
2019-05-11T08:02:04.481Z,98654.13
2019-05-11T08:04:34.540Z,98739.34
2019-05-11T08:07:04.437Z,98739.34
2019-05-11T08:09:34.975Z,98738.91
2019-05-11T08:12:04.959Z,98659.02
2019-05-11T08:14:34.819Z,98732.55
2019-05-11T08:17:08.606Z,98732.06
2019-05-11T08:19:38.573Z,98738.53
2019-05-11T08:22:10.442Z,98655.16
2019-05-11T08:24:40.459Z,98737.88
2019-05-11T08:27:12.301Z,98741.37
2019-05-11T08:29:42.810Z,98737.91
2019-05-11T08:32:13.057Z,98737.36
2019-05-11T08:34:43.506Z,98729.17
2019-05-11T08:37:18.936Z,98732.09
2019-05-11T08:39:49.451Z,98735.95
2019-05-11T08:42:19.374Z,98730.41
2019-05-11T08:44:51.973Z,98727.19
2019-05-11T08:47:22.127Z,98724.00
2019-05-11T08:49:54.462Z,98739.51
2019-05-11T08:52:28.018Z,98749.26
2019-05-11T08:54:58.941Z,98755.74
2019-05-11T08:57:30.204Z,98761.22
2019-05-11T09:00:00.762Z,98767.01
2019-05-11T09:02:30.939Z,98771.68
2019-05-11T09:05:00.905Z,98763.89
2019-05-11T09:07:31.218Z,98760.45
2019-05-11T09:10:02.376Z,98748.29
2019-05-11T09:12:33.041Z,98748.33
2019-05-11T09:15:03.102Z,98735.52
2019-05-11T09:17:33.591Z,98738.39
2019-05-11T09:22:32.424Z,98737.53
2019-05-11T09:25:03.187Z,98755.22
2019-05-11T09:27:33.450Z,98758.59
2019-05-11T09:30:08.110Z,98688.58
2019-05-11T09:32:38.469Z,98700.47
2019-05-11T09:35:09.488Z,98770.95
2019-05-11T09:37:41.054Z,98766.53
2019-05-11T09:40:11.312Z,98769.72
2019-05-11T09:42:41.602Z,98762.92
2019-05-11T09:45:12.220Z,98765.97
2019-05-11T09:47:42.675Z,98771.98
2019-05-11T09:50:13.540Z,98768.92
2019-05-11T09:52:43.913Z,98760.55
2019-05-11T09:55:15.330Z,98764.59
2019-05-11T09:57:45.514Z,98762.33
2019-05-11T10:00:19.906Z,98761.84
2019-05-11T10:02:52.564Z,98766.91
2019-05-11T10:05:23.190Z,98755.27
2019-05-11T10:07:53.399Z,98759.51
2019-05-11T10:10:23.423Z,98762.19
2019-05-11T10:12:54.553Z,98759.81
2019-05-11T10:15:24.566Z,98762.47
2019-05-11T10:17:54.563Z,98760.88
2019-05-11T10:20:23.442Z,98752.66
2019-05-11T10:22:53.799Z,98751.87
2019-05-11T10:25:23.814Z,98749.23
2019-05-11T10:27:54.022Z,98743.16
2019-05-11T10:30:24.147Z,98755.59
2019-05-11T10:32:54.470Z,98759.55
2019-05-11T10:35:25.671Z,98761.13
2019-05-11T10:37:58.316Z,98761.66
2019-05-11T10:40:29.577Z,98763.78
2019-05-11T10:43:00.436Z,98757.69
2019-05-11T10:45:30.777Z,98752.94
2019-05-11T10:48:01.291Z,98753.99
2019-05-11T10:50:31.358Z,98757.95
2019-05-11T10:53:02.478Z,98763.23
2019-05-11T10:55:32.667Z,98757.11
2019-05-11T10:58:03.190Z,98756.05
2019-05-11T11:00:35.240Z,98759.52
2019-05-11T11:03:08.442Z,98770.38
2019-05-11T11:05:38.885Z,98763.77
2019-05-11T11:08:09.702Z,98761.94
2019-05-11T11:10:39.783Z,98760.25
2019-05-11T11:13:10.926Z,98764.64
2019-05-11T11:15:41.305Z,98768.80
2019-05-11T11:18:11.567Z,98770.28
2019-05-11T11:23:12.160Z,98745.02
2019-05-11T11:25:42.679Z,98780.44
2019-05-11T11:28:13.617Z,98784.34
2019-05-11T11:30:44.422Z,98792.75
2019-05-11T11:33:15.558Z,98706.81
2019-05-11T11:35:47.686Z,98802.58
2019-05-11T11:38:19.328Z,98803.86
2019-05-11T11:40:50.659Z,98809.58
2019-05-11T11:43:20.747Z,98810.17
2019-05-11T11:45:51.276Z,98806.74
2019-05-11T11:48:22.392Z,98802.70
2019-05-11T11:50:52.581Z,98724.22
2019-05-11T11:53:24.740Z,98802.14
2019-05-11T11:55:59.730Z,98794.80
2019-05-11T11:58:32.024Z,98799.83
2019-05-11T12:01:03.368Z,98796.56
2019-05-11T12:03:33.837Z,98784.08
2019-05-11T12:06:05.044Z,98791.21
2019-05-11T12:08:38.731Z,98809.00
2019-05-11T12:11:09.645Z,98818.29
2019-05-11T12:13:40.449Z,98822.55
2019-05-11T12:16:11.686Z,98821.94
2019-05-11T12:18:43.594Z,98829.73
2019-05-11T12:21:14.302Z,98824.70
2019-05-11T12:23:44.624Z,98829.12
2019-05-11T12:26:17.634Z,98826.89
2019-05-11T12:28:48.974Z,98819.47
2019-05-11T12:31:19.594Z,98813.29
2019-05-11T12:33:52.002Z,98814.19
2019-05-11T12:36:22.082Z,98817.44
2019-05-11T12:38:52.086Z,98820.23
2019-05-11T12:41:22.692Z,98826.68
2019-05-11T12:43:52.676Z,98829.38
2019-05-11T12:46:22.722Z,98824.61
2019-05-11T12:48:56.561Z,98733.00
2019-05-11T12:51:27.775Z,98824.58
2019-05-11T12:53:58.617Z,98825.95
2019-05-11T12:56:29.051Z,98829.63
2019-05-11T12:59:01.434Z,98832.00
2019-05-11T13:01:31.482Z,98834.64
2019-05-11T13:04:03.433Z,98837.26
2019-05-11T13:06:34.978Z,98834.37
2019-05-11T13:09:07.738Z,98838.02
2019-05-11T13:11:38.970Z,98842.47
2019-05-11T13:14:12.205Z,98771.38
2019-05-11T13:16:42.600Z,98852.41
2019-05-11T13:19:14.739Z,98856.86
2019-05-11T13:21:45.201Z,98856.25
2019-05-11T13:24:15.348Z,98865.20
2019-05-11T13:26:48.570Z,98867.78
2019-05-11T13:29:20.318Z,98877.81
2019-05-11T13:31:53.592Z,98876.73
2019-05-11T13:34:23.642Z,98873.78
2019-05-11T13:36:53.737Z,98880.31
2019-05-11T13:39:24.948Z,98873.50
2019-05-11T13:41:58.109Z,98881.45
2019-05-11T13:44:28.483Z,98879.13
2019-05-11T13:46:59.830Z,98883.61
2019-05-11T13:51:59.062Z,98898.47
2019-05-11T13:54:29.902Z,98812.49
2019-05-11T13:56:59.955Z,98821.36
2019-05-11T13:59:30.154Z,98900.36
2019-05-11T14:02:00.811Z,98895.73
2019-05-11T14:04:31.218Z,98897.17
2019-05-11T14:07:01.641Z,98812.30
2019-05-11T14:09:32.210Z,98901.13
2019-05-11T14:12:04.086Z,98910.03
2019-05-11T14:14:34.582Z,98912.81
2019-05-11T14:17:05.054Z,98913.41
2019-05-11T14:19:38.273Z,98915.09
2019-05-11T14:22:08.687Z,98914.12
2019-05-11T14:24:38.664Z,98915.94
2019-05-11T14:27:08.709Z,98922.42
2019-05-11T14:29:38.803Z,98929.23
2019-05-11T14:32:09.028Z,98843.37
2019-05-11T14:34:39.742Z,98941.76
2019-05-11T14:37:09.806Z,98949.29
2019-05-11T14:39:40.164Z,98952.83
2019-05-11T14:42:10.996Z,98965.09
2019-05-11T14:44:43.310Z,98965.98
2019-05-11T14:47:14.800Z,98970.73
2019-05-11T14:49:45.121Z,98972.87
2019-05-11T14:52:19.140Z,98975.00
2019-05-11T14:54:49.652Z,98975.97
2019-05-11T14:57:19.645Z,98994.06
2019-05-11T14:59:50.506Z,98996.81
2019-05-11T15:02:38.321Z,99006.98
2019-05-11T15:05:08.931Z,99012.28
2019-05-11T15:07:39.100Z,98998.42
2019-05-11T15:10:10.709Z,99025.98
2019-05-11T15:12:41.076Z,99033.45
2019-05-11T15:15:14.841Z,99035.50
2019-05-11T15:17:44.971Z,99039.80
2019-05-11T15:20:17.747Z,99032.48
2019-05-11T15:22:48.939Z,99021.42
2019-05-11T15:25:19.910Z,99023.47
2019-05-11T15:27:50.365Z,99029.01
2019-05-11T15:30:20.950Z,99040.84
2019-05-11T15:32:51.340Z,99056.72
2019-05-11T15:35:22.934Z,99059.61
2019-05-11T15:37:54.401Z,99077.23
2019-05-11T15:40:24.451Z,99074.61
2019-05-11T15:42:54.814Z,99083.69
2019-05-11T15:45:27.531Z,99104.10
2019-05-11T15:48:01.147Z,99109.05
2019-05-11T15:50:31.559Z,99116.50
2019-05-11T15:53:02.234Z,99113.25
2019-05-11T15:55:32.683Z,99119.88
2019-05-11T15:58:03.600Z,99133.27
2019-05-11T16:00:33.802Z,99134.03
2019-05-11T16:03:04.556Z,99144.14
2019-05-11T16:05:35.715Z,99146.54
2019-05-11T16:08:08.396Z,99060.68
2019-05-11T16:10:39.379Z,99173.33
2019-05-11T16:13:09.871Z,99166.17
2019-05-11T16:15:40.591Z,99168.11
2019-05-11T16:18:11.944Z,99174.97
2019-05-11T16:20:41.973Z,99179.43
2019-05-11T16:23:12.919Z,99181.84
2019-05-11T16:25:43.559Z,99101.98
2019-05-11T16:28:13.616Z,99197.84
2019-05-11T16:30:43.582Z,99201.56
2019-05-11T16:33:13.740Z,99209.05
2019-05-11T16:35:43.736Z,99207.95
2019-05-11T16:38:13.796Z,99203.16
2019-05-11T16:40:43.870Z,99201.98
2019-05-11T16:43:14.069Z,99211.25
2019-05-11T16:45:44.064Z,99232.83
2019-05-11T16:48:14.022Z,99237.27
2019-05-11T16:50:43.911Z,99236.04
2019-05-11T16:53:17.983Z,99238.66
2019-05-11T16:55:48.667Z,99248.42
2019-05-11T16:58:20.034Z,99235.75
2019-05-11T17:00:50.487Z,99237.87
2019-05-11T17:03:23.719Z,99245.08
2019-05-11T17:05:54.428Z,99246.03
2019-05-11T17:08:24.534Z,99258.34
2019-05-11T17:10:59.619Z,99266.73
2019-05-11T17:13:30.490Z,99266.28
2019-05-11T17:16:00.839Z,99274.36
2019-05-11T17:18:34.919Z,99287.62
2019-05-11T17:21:12.786Z,99304.16
2019-05-11T17:23:43.475Z,99308.09
2019-05-11T17:26:16.238Z,99311.81
2019-05-11T17:28:48.950Z,99321.34
2019-05-11T17:31:22.418Z,99319.73
2019-05-11T17:33:53.632Z,99322.16
2019-05-11T17:36:27.928Z,99332.19
2019-05-11T17:38:58.587Z,99346.56
2019-05-11T17:41:29.350Z,99357.73
2019-05-11T17:44:01.681Z,99364.22
2019-05-11T17:46:32.620Z,99362.30
2019-05-11T17:49:03.093Z,99372.85
2019-05-11T17:51:33.134Z,99380.84
2019-05-11T17:54:04.368Z,99387.19
2019-05-11T17:56:38.756Z,99395.55
2019-05-11T17:59:08.535Z,99398.63
2019-05-11T18:01:40.031Z,99407.53
2019-05-11T18:04:13.421Z,99409.22
2019-05-11T18:06:47.613Z,99418.61
2019-05-11T18:09:19.248Z,99421.44
2019-05-11T18:11:51.275Z,99428.25
2019-05-11T18:14:21.805Z,99427.69
2019-05-11T18:16:55.321Z,99434.72
2019-05-11T18:19:27.682Z,99444.77
2019-05-11T18:22:00.131Z,99449.48
2019-05-11T18:24:33.435Z,99447.06
2019-05-11T18:27:08.312Z,99452.09
2019-05-11T18:29:42.965Z,99466.94
2019-05-11T18:32:14.814Z,99387.05
2019-05-11T18:34:52.565Z,99471.78
2019-05-11T18:37:27.963Z,99476.62
2019-05-11T18:40:01.484Z,99488.71
2019-05-11T18:42:31.827Z,99492.95
2019-05-11T18:45:09.134Z,99408.51
2019-05-11T18:47:40.354Z,99510.16
2019-05-11T18:50:12.321Z,99507.84
2019-05-11T18:52:45.015Z,99514.50
2019-05-11T18:55:15.404Z,99520.83
2019-05-11T18:57:49.026Z,99526.48
2019-05-11T19:00:20.612Z,99528.79
2019-05-11T19:02:51.415Z,99525.67
2019-05-11T19:05:21.917Z,99536.75
2019-05-11T19:07:54.738Z,99544.69
2019-05-11T19:10:27.781Z,99549.22
2019-05-11T19:12:58.964Z,99559.19
2019-05-11T19:15:30.196Z,99562.50
2019-05-11T19:18:01.510Z,99568.93
2019-05-11T19:20:45.416Z,99580.40
2019-05-11T19:23:08.304Z,99581.02
2019-05-11T19:25:38.642Z,99588.67
2019-05-11T19:28:08.767Z,99595.83
2019-05-11T19:30:41.752Z,99606.19
2019-05-11T19:33:13.271Z,99607.11
2019-05-11T19:35:43.531Z,99618.38
2019-05-11T19:38:18.926Z,99631.24
2019-05-11T19:40:50.077Z,99631.45
2019-05-11T19:43:23.070Z,99635.05
2019-05-11T19:45:54.266Z,99644.01
2019-05-11T19:48:28.028Z,99652.88
2019-05-11T19:51:07.718Z,99664.01
2019-05-11T19:53:38.444Z,99676.48
2019-05-11T19:56:12.205Z,99678.47
2019-05-11T19:58:43.841Z,99696.67
2019-05-11T20:01:15.404Z,99696.67
2019-05-11T20:03:46.420Z,99704.08
2019-05-11T20:06:17.300Z,99698.28
2019-05-11T20:08:48.222Z,99623.55
2019-05-11T20:11:19.845Z,99717.63
2019-05-11T20:13:50.882Z,99716.48
2019-05-11T20:16:21.491Z,99716.48
2019-05-11T20:18:57.807Z,99713.15
2019-05-11T20:21:30.161Z,99713.15
2019-05-11T20:24:02.250Z,99720.05
2019-05-11T20:26:33.411Z,99731.12
2019-05-11T20:29:15.133Z,99729.47
2019-05-11T20:31:47.360Z,99729.47
2019-05-11T20:34:21.663Z,99744.78
2019-05-11T20:36:53.925Z,99744.78
2019-05-11T20:39:29.639Z,99752.47
2019-05-11T20:42:02.875Z,99752.47
2019-05-11T20:44:47.651Z,99750.32
2019-05-11T20:47:19.044Z,99750.59
2019-05-11T20:49:51.601Z,99750.59
2019-05-11T20:52:21.977Z,99765.95
2019-05-11T20:54:55.039Z,99764.47
2019-05-11T20:57:28.347Z,99772.81
2019-05-11T20:59:58.232Z,99774.94
2019-05-11T21:02:30.322Z,99774.94
2019-05-11T21:05:02.034Z,99676.40
2019-05-11T21:07:34.484Z,99773.08
2019-05-11T21:10:21.620Z,99777.98
2019-05-11T21:12:55.029Z,99777.45
2019-05-11T21:15:28.140Z,99788.44
2019-05-11T21:17:58.844Z,99799.47
2019-05-11T21:20:33.977Z,99789.88
2019-05-11T21:23:04.604Z,99789.88
2019-05-11T21:25:37.782Z,99794.19
2019-05-11T21:28:09.891Z,99800.13
2019-05-11T21:30:43.512Z,99804.28
2019-05-11T21:33:17.759Z,99810.60
2019-05-11T21:35:50.997Z,99803.59
2019-05-11T21:38:21.834Z,99800.98
2019-05-11T21:40:52.202Z,99800.98
2019-05-11T21:43:25.420Z,99806.83
2019-05-11T21:45:55.426Z,99803.03
2019-05-11T21:48:27.919Z,99827.80
2019-05-11T21:51:05.802Z,99829.11
2019-05-11T21:53:37.996Z,99827.52
2019-05-11T21:56:08.337Z,99839.04
2019-05-11T21:58:40.687Z,99842.78
2019-05-11T22:01:14.493Z,99854.18
2019-05-11T22:03:50.703Z,99850.97
2019-05-11T22:06:21.518Z,99852.47
2019-05-11T22:08:51.542Z,99861.31
2019-05-11T22:11:24.829Z,99868.70
2019-05-11T22:13:54.871Z,99871.31
2019-05-11T22:16:29.872Z,99875.77
2019-05-11T22:18:58.160Z,99881.22
2019-05-11T22:21:28.221Z,99878.88
2019-05-11T22:23:58.663Z,99884.25
2019-05-11T22:26:28.830Z,99885.14
2019-05-11T22:28:59.049Z,99886.27
2019-05-11T22:31:34.076Z,99886.08
2019-05-11T22:34:04.513Z,99885.88
2019-05-11T22:36:35.020Z,99892.86
2019-05-11T22:39:08.388Z,99892.67
2019-05-11T22:41:39.818Z,99893.45
2019-05-11T22:44:10.886Z,99896.88
2019-05-11T22:46:42.102Z,99902.23
2019-05-11T22:49:11.006Z,99908.29
2019-05-11T22:51:42.460Z,99909.36
2019-05-11T22:54:12.513Z,99911.48
2019-05-11T22:56:42.910Z,99914.41
2019-05-11T22:59:12.952Z,99914.72
2019-05-11T23:01:43.064Z,99926.81
2019-05-11T23:04:19.668Z,99924.32
2019-05-11T23:06:47.838Z,99933.48
2019-05-11T23:09:19.814Z,99938.50
2019-05-11T23:11:50.464Z,99949.30
2019-05-11T23:14:21.857Z,99950.61
2019-05-11T23:16:51.877Z,99955.56
2019-05-11T23:19:22.336Z,99945.48
2019-05-11T23:21:54.024Z,99951.85
2019-05-11T23:24:24.586Z,99952.59
2019-05-11T23:26:54.849Z,99957.42
2019-05-11T23:29:28.422Z,99958.73
2019-05-11T23:31:58.755Z,99958.42
2019-05-11T23:34:28.863Z,99957.11
2019-05-11T23:36:59.247Z,99864.13
2019-05-11T23:39:29.442Z,99962.66
2019-05-11T23:42:00.333Z,99955.42
2019-05-11T23:44:33.795Z,99950.88
2019-05-11T23:47:08.191Z,99963.97
2019-05-11T23:49:40.454Z,99966.41
2019-05-11T23:52:10.767Z,99970.84
2019-05-11T23:54:41.184Z,99969.15
2019-05-11T23:57:11.444Z,99974.39
2019-05-11T23:59:41.580Z,99981.03
